createdAt,value
2019-04-27T00:01:10.696Z,8.80
2019-04-27T00:05:54.170Z,8.80
2019-04-27T00:10:45.035Z,8.70
2019-04-27T00:15:37.258Z,8.70
2019-04-27T00:20:27.792Z,8.70
2019-04-27T00:25:19.170Z,8.60
2019-04-27T00:30:11.434Z,8.50
2019-04-27T00:35:04.171Z,8.50
2019-04-27T00:39:55.569Z,8.40
2019-04-27T00:44:46.931Z,8.40
2019-04-27T00:49:38.426Z,8.30
2019-04-27T00:54:29.740Z,8.20
2019-04-27T00:59:21.226Z,8.10
2019-04-27T01:04:14.274Z,8.00
2019-04-27T01:09:06.167Z,7.90
2019-04-27T01:13:57.577Z,7.80
2019-04-27T01:18:49.570Z,7.70
2019-04-27T01:23:40.354Z,7.70
2019-04-27T01:28:32.599Z,7.60
2019-04-27T01:33:25.485Z,7.40
2019-04-27T01:38:16.939Z,7.40
2019-04-27T01:43:10.514Z,7.40
2019-04-27T01:48:02.915Z,7.40
2019-04-27T01:52:53.299Z,7.40
2019-04-27T01:57:48.902Z,7.30
2019-04-27T02:02:39.957Z,7.30
2019-04-27T02:07:30.739Z,7.20
2019-04-27T02:12:21.155Z,7.20
2019-04-27T02:17:12.621Z,7.20
2019-04-27T02:22:03.914Z,7.10
2019-04-27T02:26:59.055Z,7.10
2019-04-27T02:31:50.763Z,7.00
2019-04-27T02:36:42.612Z,7.00
2019-04-27T02:41:34.039Z,6.90
2019-04-27T02:46:32.217Z,6.90
2019-04-27T02:51:25.992Z,6.90
2019-04-27T02:56:17.241Z,6.80
2019-04-27T03:01:10.678Z,6.80
2019-04-27T03:06:00.506Z,6.80
2019-04-27T03:10:51.544Z,6.70
2019-04-27T03:15:42.798Z,6.70
2019-04-27T03:20:34.220Z,6.70
2019-04-27T03:25:25.681Z,6.70
2019-04-27T03:30:17.071Z,6.70
2019-04-27T03:35:14.446Z,6.70
2019-04-27T03:40:04.235Z,6.70
2019-04-27T03:44:55.673Z,6.80
2019-04-27T03:49:47.141Z,6.80
2019-04-27T03:54:40.766Z,6.70
2019-04-27T04:04:25.880Z,6.80
2019-04-27T04:09:19.151Z,6.80
2019-04-27T04:14:10.723Z,6.90
2019-04-27T04:19:01.757Z,7.00
2019-04-27T04:23:53.516Z,7.00
2019-04-27T04:28:45.032Z,7.10
2019-04-27T04:33:40.654Z,7.30
2019-04-27T04:38:31.288Z,7.50
2019-04-27T04:43:21.485Z,7.70
2019-04-27T04:48:12.922Z,7.90
2019-04-27T04:53:04.127Z,8.20
2019-04-27T04:57:55.563Z,8.30
2019-04-27T05:02:46.980Z,8.50
2019-04-27T05:07:40.522Z,8.60
2019-04-27T05:12:31.986Z,8.50
2019-04-27T05:17:23.341Z,8.70
2019-04-27T05:22:14.775Z,9.50
2019-04-27T05:27:06.090Z,11.30
2019-04-27T05:31:59.640Z,12.80
2019-04-27T05:36:53.139Z,13.10
2019-04-27T05:41:42.361Z,12.20
2019-04-27T05:46:37.282Z,11.60
2019-04-27T05:51:25.329Z,11.30
2019-04-27T05:56:16.751Z,11.30
2019-04-27T06:01:11.843Z,11.20
2019-04-27T06:06:02.399Z,11.00
2019-04-27T06:10:55.443Z,10.70
2019-04-27T06:15:46.866Z,10.80
2019-04-27T06:20:56.280Z,11.10
2019-04-27T06:25:31.890Z,11.50
2019-04-27T06:30:25.518Z,11.90
2019-04-27T06:35:18.890Z,12.30
2019-04-27T06:40:10.481Z,12.70
2019-04-27T06:49:55.642Z,12.90
2019-04-27T06:54:48.782Z,13.50
2019-04-27T06:59:42.850Z,13.90
2019-04-27T07:04:39.415Z,14.40
2019-04-27T07:09:30.201Z,15.10
2019-04-27T07:14:23.814Z,15.40
2019-04-27T07:19:15.325Z,15.50
2019-04-27T07:24:09.316Z,15.60
2019-04-27T07:29:04.735Z,15.80
2019-04-27T07:33:56.247Z,16.00
2019-04-27T07:38:49.225Z,15.80
2019-04-27T07:43:45.733Z,15.80
2019-04-27T07:48:37.161Z,15.60
2019-04-27T07:58:22.778Z,15.80
2019-04-27T08:03:19.856Z,16.10
2019-04-27T08:08:09.673Z,16.40
2019-04-27T08:13:00.906Z,16.60
2019-04-27T08:17:52.342Z,16.40
2019-04-27T08:22:43.775Z,15.90
2019-04-27T08:27:37.308Z,15.70
2019-04-27T08:32:29.946Z,15.20
2019-04-27T08:37:20.106Z,15.20
2019-04-27T08:42:11.527Z,15.00
2019-04-27T08:47:02.875Z,15.10
2019-04-27T08:52:02.281Z,15.10
2019-04-27T08:56:45.739Z,15.30
2019-04-27T09:01:37.053Z,15.60
2019-04-27T09:06:31.672Z,16.10
2019-04-27T09:11:21.324Z,15.80
2019-04-27T09:16:11.799Z,15.80
2019-04-27T09:21:04.763Z,16.00
2019-04-27T09:25:56.162Z,16.10
2019-04-27T09:30:47.625Z,16.40
2019-04-27T09:35:38.964Z,16.80
2019-04-27T09:40:30.387Z,16.10
2019-04-27T09:45:21.676Z,16.10
2019-04-27T09:50:13.146Z,16.20
2019-04-27T09:55:08.816Z,15.80
2019-04-27T09:59:58.480Z,15.80
2019-04-27T10:04:49.461Z,15.90
2019-04-27T10:09:40.905Z,16.30
2019-04-27T10:14:32.325Z,16.30
2019-04-27T10:19:33.595Z,16.00
2019-04-27T10:24:16.290Z,16.00
2019-04-27T10:29:06.915Z,16.10
2019-04-27T10:33:58.238Z,15.90
2019-04-27T10:38:51.399Z,16.00
2019-04-27T10:43:42.786Z,16.00
2019-04-27T10:48:34.309Z,15.80
2019-04-27T10:53:27.484Z,15.00
2019-04-27T10:58:17.039Z,14.60
2019-04-27T11:03:08.322Z,14.70
2019-04-27T11:08:01.908Z,14.90
2019-04-27T11:12:56.387Z,15.20
2019-04-27T11:17:48.350Z,15.40
2019-04-27T11:22:42.966Z,15.50
2019-04-27T11:27:34.526Z,15.40
2019-04-27T11:32:25.938Z,15.50
2019-04-27T11:37:17.252Z,15.70
2019-04-27T11:42:08.523Z,15.80
2019-04-27T11:47:06.245Z,15.80
2019-04-27T11:51:57.364Z,15.60
2019-04-27T11:56:47.898Z,15.40
2019-04-27T12:01:38.570Z,15.30
2019-04-27T12:06:30.050Z,15.50
2019-04-27T12:11:21.526Z,15.60
2019-04-27T12:16:12.875Z,15.70
2019-04-27T12:21:05.685Z,16.20
2019-04-27T12:25:56.969Z,16.60
2019-04-27T12:30:47.096Z,16.40
2019-04-27T12:35:38.362Z,16.10
2019-04-27T12:40:29.713Z,16.10
2019-04-27T12:45:21.223Z,16.30
2019-04-27T12:50:12.603Z,16.30
2019-04-27T12:55:03.910Z,16.70
2019-04-27T12:59:57.142Z,16.60
2019-04-27T13:04:47.516Z,16.70
2019-04-27T13:09:38.114Z,16.60
2019-04-27T13:14:29.468Z,17.00
2019-04-27T13:19:20.830Z,16.90
2019-04-27T13:24:12.239Z,17.00
2019-04-27T13:29:03.659Z,17.00
2019-04-27T13:33:56.446Z,16.90
2019-04-27T13:38:47.348Z,17.00
2019-04-27T13:43:37.810Z,16.60
2019-04-27T13:48:29.253Z,16.50
2019-04-27T13:53:20.649Z,16.50
2019-04-27T13:58:11.919Z,16.60
2019-04-27T14:03:05.122Z,16.40
2019-04-27T14:07:54.771Z,15.70
2019-04-27T14:17:39.623Z,15.30
2019-04-27T14:22:32.165Z,15.00
2019-04-27T14:27:20.441Z,14.70
2019-04-27T14:32:11.756Z,14.50
2019-04-27T14:37:03.092Z,14.00
2019-04-27T14:41:54.494Z,12.60
2019-04-27T14:46:45.895Z,11.40
2019-04-27T14:51:40.764Z,10.80
2019-04-27T14:56:28.947Z,10.60
2019-04-27T15:01:21.206Z,10.80
2019-04-27T15:06:11.568Z,11.00
2019-04-27T15:11:19.588Z,11.00
2019-04-27T15:15:54.287Z,10.90
2019-04-27T15:20:47.270Z,11.50
2019-04-27T15:25:47.648Z,11.60
2019-04-27T15:30:28.483Z,11.60
2019-04-27T15:35:22.213Z,11.10
2019-04-27T15:40:13.409Z,11.00
2019-04-27T15:45:02.736Z,10.90
2019-04-27T15:49:55.429Z,10.60
2019-04-27T15:54:45.425Z,10.50
2019-04-27T15:59:41.392Z,10.40
2019-04-27T16:04:28.190Z,10.40
2019-04-27T16:09:26.087Z,10.60
2019-04-27T16:14:10.965Z,10.90
2019-04-27T16:19:12.006Z,10.90
2019-04-27T16:23:53.724Z,10.70
2019-04-27T16:28:53.996Z,10.90
2019-04-27T16:33:36.445Z,11.10
2019-04-27T16:38:35.271Z,11.20
2019-04-27T16:43:19.443Z,11.40
2019-04-27T16:48:10.663Z,11.30
2019-04-27T16:53:02.027Z,11.20
2019-04-27T16:57:54.363Z,11.20
2019-04-27T17:02:45.025Z,11.00
2019-04-27T17:09:46.669Z,11.00
2019-04-27T17:12:45.996Z,11.00
2019-04-27T17:17:20.406Z,11.20
2019-04-27T17:22:18.286Z,11.30
2019-04-27T17:27:01.767Z,11.30
2019-04-27T17:32:00.378Z,11.20
2019-04-27T17:36:58.555Z,11.20
2019-04-27T17:41:36.044Z,11.30
2019-04-27T17:46:28.893Z,11.10
2019-04-27T17:51:18.700Z,10.70
2019-04-27T17:56:10.134Z,9.90
2019-04-27T18:01:01.550Z,9.20
2019-04-27T18:05:52.944Z,8.90
2019-04-27T18:10:44.254Z,8.60
2019-04-27T18:15:35.718Z,8.60
2019-04-27T18:20:29.279Z,8.70
2019-04-27T18:25:19.329Z,8.60
2019-04-27T18:30:11.244Z,8.50
2019-04-27T18:35:01.255Z,8.50
2019-04-27T18:39:55.662Z,8.40
2019-04-27T18:44:46.410Z,8.40
2019-04-27T18:49:39.362Z,8.40
2019-04-27T18:54:41.821Z,8.30
2019-04-27T18:59:20.583Z,8.30
2019-04-27T19:04:11.922Z,8.20
2019-04-27T19:09:03.343Z,8.10
2019-04-27T19:13:54.786Z,8.10
2019-04-27T19:18:48.522Z,7.90
2019-04-27T19:23:40.853Z,7.40
2019-04-27T19:28:31.535Z,7.40
2019-04-27T19:33:23.005Z,7.30
2019-04-27T19:38:14.429Z,7.30
2019-04-27T19:43:05.825Z,7.30
2019-04-27T19:47:57.144Z,7.30
2019-04-27T19:52:50.950Z,7.40
2019-04-27T19:57:42.675Z,7.40
2019-04-27T20:02:31.434Z,7.40
2019-04-27T20:07:22.761Z,7.20
2019-04-27T20:12:14.451Z,7.30
2019-04-27T20:17:06.391Z,7.20
2019-04-27T20:21:57.014Z,7.20
2019-04-27T20:26:48.304Z,7.10
2019-04-27T20:31:41.716Z,7.10
2019-04-27T20:36:32.015Z,7.00
2019-04-27T20:41:22.533Z,6.90
2019-04-27T20:46:13.879Z,6.90
2019-04-27T20:51:05.298Z,6.80
2019-04-27T20:55:56.694Z,6.80
2019-04-27T21:00:48.076Z,6.80
2019-04-27T21:05:41.442Z,6.90
2019-04-27T21:10:33.075Z,6.90
2019-04-27T21:15:22.311Z,6.80
2019-04-27T21:20:13.926Z,6.80
2019-04-27T21:25:04.949Z,6.70
2019-04-27T21:29:56.499Z,6.60
2019-04-27T21:34:47.879Z,6.50
2019-04-27T21:39:39.255Z,6.30
2019-04-27T21:44:32.544Z,6.40
2019-04-27T21:49:22.074Z,6.20
2019-04-27T21:54:13.408Z,6.20
2019-04-27T21:59:04.774Z,6.10
2019-04-27T22:03:56.010Z,6.10
2019-04-27T22:08:47.521Z,6.10
2019-04-27T22:13:41.566Z,6.00
2019-04-27T22:18:32.046Z,6.10
2019-04-27T22:23:23.598Z,6.10
2019-04-27T22:28:13.005Z,6.10
2019-04-27T22:33:04.408Z,6.10
2019-04-27T22:37:55.797Z,6.10
2019-04-27T22:42:47.133Z,6.00
2019-04-27T22:47:38.577Z,5.90
2019-04-27T22:52:31.382Z,5.80
2019-04-27T22:57:23.848Z,5.80
2019-04-27T23:02:12.790Z,5.70
2019-04-27T23:07:04.181Z,5.60
2019-04-27T23:11:56.352Z,5.50
2019-04-27T23:16:47.111Z,5.50
2019-04-27T23:21:38.299Z,5.40
2019-04-27T23:26:31.775Z,5.30
2019-04-27T23:31:21.648Z,5.40
2019-04-27T23:36:12.564Z,5.30
2019-04-27T23:41:03.859Z,5.20
2019-04-27T23:45:55.407Z,5.10
2019-04-27T23:50:46.681Z,5.10
2019-04-27T23:55:38.041Z,5.10
